sensor_id;sensor_type;location;lat;lon;timestamp;pressure;altitude;pressure_sealevel;temperature;humidity
13124;BME280;6627;50.920;12.050;2024-03-23T00:54:36;98118.16;;;18.17;45.17
13124;BME280;6627;50.920;12.050;2024-03-23T00:57:02;98090.41;;;17.33;47.20
13124;BME280;6627;50.920;12.050;2024-03-23T00:59:30;98117.34;;;17.51;47.20
13124;BME280;6627;50.920;12.050;2024-03-23T01:01:57;98148.75;;;17.76;47.14
13124;BME280;6627;50.920;12.050;2024-03-23T01:04:24;98040.88;;;17.19;47.13
13124;BME280;6627;50.920;12.050;2024-03-23T01:06:50;98131.66;;;18.06;46.05
13124;BME280;6627;50.920;12.050;2024-03-23T01:09:17;98081.19;;;17.03;48.15
13124;BME280;6627;50.920;12.050;2024-03-23T01:11:45;98074.00;;;16.95;48.43
13124;BME280;6627;50.920;12.050;2024-03-23T01:14:12;98177.28;;;17.56;48.83
13124;BME280;6627;50.920;12.050;2024-03-23T01:16:39;98146.22;;;18.10;47.02
13124;BME280;6627;50.920;12.050;2024-03-23T01:19:06;98173.66;;;18.33;47.00
13124;BME280;6627;50.920;12.050;2024-03-23T01:21:33;98110.22;;;18.34;45.87
13124;BME280;6627;50.920;12.050;2024-03-23T01:23:59;98147.72;;;18.53;46.19
13124;BME280;6627;50.920;12.050;2024-03-23T01:26:27;98052.50;;;17.55;47.10
13124;BME280;6627;50.920;12.050;2024-03-23T01:28:55;98137.50;;;18.27;46.68
13124;BME280;6627;50.920;12.050;2024-03-23T01:31:22;98072.16;;;17.60;47.47
13124;BME280;6627;50.920;12.050;2024-03-23T01:33:48;98153.66;;;18.32;47.04
13124;BME280;6627;50.920;12.050;2024-03-23T01:36:15;98154.84;;;18.81;45.91
13124;BME280;6627;50.920;12.050;2024-03-23T01:38:42;98126.00;;;18.90;45.15
13124;BME280;6627;50.920;12.050;2024-03-23T01:41:09;98152.16;;;18.84;45.59
13124;BME280;6627;50.920;12.050;2024-03-23T01:43:35;98116.34;;;18.24;46.64
13124;BME280;6627;50.920;12.050;2024-03-23T01:46:04;98158.84;;;18.37;47.11
13124;BME280;6627;50.920;12.050;2024-03-23T01:48:30;98141.03;;;18.51;46.34
13124;BME280;6627;50.920;12.050;2024-03-23T01:50:58;98084.22;;;17.36;48.31
13124;BME280;6627;50.920;12.050;2024-03-23T01:53:25;98108.84;;;17.56;48.13
13124;BME280;6627;50.920;12.050;2024-03-23T01:55:53;98136.44;;;17.28;49.93
13124;BME280;6627;50.920;12.050;2024-03-23T01:58:19;98189.44;;;18.39;48.32
13124;BME280;6627;50.920;12.050;2024-03-23T02:00:46;98183.16;;;18.88;47.24
13124;BME280;6627;50.920;12.050;2024-03-23T02:03:24;98231.81;;;19.45;46.51
13124;BME280;6627;50.920;12.050;2024-03-23T02:05:53;98124.63;;;18.77;46.71
13124;BME280;6627;50.920;12.050;2024-03-23T02:08:21;98182.19;;;18.74;47.83
13124;BME280;6627;50.920;12.050;2024-03-23T02:10:50;98244.81;;;19.78;46.05
13124;BME280;6627;50.920;12.050;2024-03-23T02:13:17;98191.38;;;18.16;49.45
13124;BME280;6627;50.920;12.050;2024-03-23T02:15:45;98230.59;;;18.66;48.31
13124;BME280;6627;50.920;12.050;2024-03-23T02:18:12;98205.13;;;18.88;47.68
13124;BME280;6627;50.920;12.050;2024-03-23T02:20:40;98203.22;;;19.19;47.07
13124;BME280;6627;50.920;12.050;2024-03-23T02:23:14;98204.25;;;19.37;46.93
13124;BME280;6627;50.920;12.050;2024-03-23T02:25:42;98191.56;;;19.89;45.58
13124;BME280;6627;50.920;12.050;2024-03-23T02:28:09;98154.97;;;18.65;48.32
13124;BME280;6627;50.920;12.050;2024-03-23T02:30:37;98144.53;;;18.02;49.91
13124;BME280;6627;50.920;12.050;2024-03-23T02:33:04;98165.28;;;18.49;49.46
13124;BME280;6627;50.920;12.050;2024-03-23T02:35:32;98241.56;;;19.42;48.50
13124;BME280;6627;50.920;12.050;2024-03-23T02:37:58;98213.25;;;19.08;49.07
13124;BME280;6627;50.920;12.050;2024-03-23T02:40:28;98146.25;;;18.82;48.56
13124;BME280;6627;50.920;12.050;2024-03-23T02:42:55;98132.66;;;18.17;49.91
13124;BME280;6627;50.920;12.050;2024-03-23T02:45:22;98202.44;;;19.19;48.62
13124;BME280;6627;50.920;12.050;2024-03-23T02:47:48;98118.72;;;18.52;48.40
13124;BME280;6627;50.920;12.050;2024-03-23T02:50:18;98164.72;;;18.62;48.77
13124;BME280;6627;50.920;12.050;2024-03-23T02:52:44;98184.13;;;19.30;47.76
13124;BME280;6627;50.920;12.050;2024-03-23T02:55:12;98107.59;;;18.68;48.03
13124;BME280;6627;50.920;12.050;2024-03-23T02:57:40;98117.13;;;18.74;48.64
13124;BME280;6627;50.920;12.050;2024-03-23T03:00:08;98128.47;;;18.50;49.47
13124;BME280;6627;50.920;12.050;2024-03-23T03:02:35;98195.00;;;18.93;49.86
13124;BME280;6627;50.920;12.050;2024-03-23T03:05:04;98141.66;;;18.67;49.92
13124;BME280;6627;50.920;12.050;2024-03-23T03:07:31;98150.13;;;18.81;49.95
13124;BME280;6627;50.920;12.050;2024-03-23T03:09:58;98105.69;;;18.46;50.06
13124;BME280;6627;50.920;12.050;2024-03-23T03:12:25;98096.53;;;18.61;49.75
13124;BME280;6627;50.920;12.050;2024-03-23T03:14:54;98149.06;;;18.63;50.51
13124;BME280;6627;50.920;12.050;2024-03-23T03:17:20;98101.03;;;18.00;51.14
13124;BME280;6627;50.920;12.050;2024-03-23T03:19:47;98114.22;;;18.40;50.69
13124;BME280;6627;50.920;12.050;2024-03-23T03:22:14;98087.09;;;18.09;51.22
13124;BME280;6627;50.920;12.050;2024-03-23T03:24:41;98203.03;;;19.05;51.31
13124;BME280;6627;50.920;12.050;2024-03-23T03:27:08;98132.50;;;19.09;49.58
13124;BME280;6627;50.920;12.050;2024-03-23T03:29:35;98144.28;;;19.09;49.71
13124;BME280;6627;50.920;12.050;2024-03-23T03:32:04;98192.94;;;19.12;50.36
13124;BME280;6627;50.920;12.050;2024-03-23T03:34:31;98137.84;;;18.72;50.78
13124;BME280;6627;50.920;12.050;2024-03-23T03:36:58;98156.38;;;18.78;50.60
13124;BME280;6627;50.920;12.050;2024-03-23T03:39:25;98139.13;;;19.68;48.76
13124;BME280;6627;50.920;12.050;2024-03-23T03:41:52;98158.03;;;20.14;47.94
13124;BME280;6627;50.920;12.050;2024-03-23T03:44:20;98124.13;;;19.99;48.04
13124;BME280;6627;50.920;12.050;2024-03-23T03:46:46;98061.69;;;19.25;48.64
13124;BME280;6627;50.920;12.050;2024-03-23T03:49:14;98021.97;;;18.25;50.27
13124;BME280;6627;50.920;12.050;2024-03-23T03:51:41;98106.13;;;19.01;50.17
13124;BME280;6627;50.920;12.050;2024-03-23T03:54:08;98089.19;;;18.95;49.97
13124;BME280;6627;50.920;12.050;2024-03-23T03:56:35;98129.53;;;18.95;50.55
13124;BME280;6627;50.920;12.050;2024-03-23T03:59:03;98077.38;;;18.91;50.33
13124;BME280;6627;50.920;12.050;2024-03-23T04:01:29;98084.81;;;18.64;51.19
13124;BME280;6627;50.920;12.050;2024-03-23T04:03:56;98040.94;;;17.65;52.51
13124;BME280;6627;50.920;12.050;2024-03-23T04:06:24;98075.56;;;18.23;52.40
13124;BME280;6627;50.920;12.050;2024-03-23T04:08:51;98066.50;;;18.45;51.61
13124;BME280;6627;50.920;12.050;2024-03-23T04:11:18;98063.09;;;18.78;50.34
13124;BME280;6627;50.920;12.050;2024-03-23T04:13:45;98094.34;;;19.30;49.73
13124;BME280;6627;50.920;12.050;2024-03-23T04:16:11;98075.13;;;19.30;49.75
13124;BME280;6627;50.920;12.050;2024-03-23T04:18:38;98139.03;;;20.98;46.55
13124;BME280;6627;50.920;12.050;2024-03-23T04:21:05;98082.94;;;20.51;46.72
13124;BME280;6627;50.920;12.050;2024-03-23T04:23:34;98080.44;;;20.35;46.65
13124;BME280;6627;50.920;12.050;2024-03-23T04:26:04;98136.00;;;21.13;46.01
13124;BME280;6627;50.920;12.050;2024-03-23T04:28:31;98067.84;;;20.92;45.43
13124;BME280;6627;50.920;12.050;2024-03-23T04:30:58;98057.22;;;20.29;46.59
13124;BME280;6627;50.920;12.050;2024-03-23T04:33:25;98041.53;;;19.48;48.72
13124;BME280;6627;50.920;12.050;2024-03-23T04:35:51;98051.09;;;19.98;47.73
13124;BME280;6627;50.920;12.050;2024-03-23T04:38:18;98027.84;;;19.92;47.33
13124;BME280;6627;50.920;12.050;2024-03-23T04:40:54;98008.19;;;19.46;48.07
13124;BME280;6627;50.920;12.050;2024-03-23T04:43:22;98033.41;;;19.99;47.51
13124;BME280;6627;50.920;12.050;2024-03-23T04:45:49;98036.72;;;20.81;46.26
13124;BME280;6627;50.920;12.050;2024-03-23T04:48:17;98004.47;;;20.78;45.53
13124;BME280;6627;50.920;12.050;2024-03-23T04:50:44;97956.94;;;20.12;46.48
13124;BME280;6627;50.920;12.050;2024-03-23T04:53:12;97998.47;;;20.55;45.74
13124;BME280;6627;50.920;12.050;2024-03-23T04:55:39;98000.56;;;20.86;45.53
13124;BME280;6627;50.920;12.050;2024-03-23T04:58:07;97995.78;;;20.69;45.84
13124;BME280;6627;50.920;12.050;2024-03-23T05:00:34;97940.81;;;20.07;47.08
13124;BME280;6627;50.920;12.050;2024-03-23T05:03:01;97949.69;;;19.86;47.56
13124;BME280;6627;50.920;12.050;2024-03-23T05:05:27;97967.88;;;20.74;45.79
13124;BME280;6627;50.920;12.050;2024-03-23T05:07:55;97964.44;;;20.99;45.04
13124;BME280;6627;50.920;12.050;2024-03-23T05:10:21;97870.78;;;19.31;47.39
13124;BME280;6627;50.920;12.050;2024-03-23T05:12:49;97874.84;;;19.07;48.24
13124;BME280;6627;50.920;12.050;2024-03-23T05:15:17;97875.56;;;19.41;47.76
13124;BME280;6627;50.920;12.050;2024-03-23T05:17:44;97917.69;;;20.15;46.93
13124;BME280;6627;50.920;12.050;2024-03-23T05:20:10;97883.41;;;19.95;47.14
13124;BME280;6627;50.920;12.050;2024-03-23T05:22:39;97882.81;;;19.64;47.58
13124;BME280;6627;50.920;12.050;2024-03-23T05:25:07;97855.59;;;18.63;49.61
13124;BME280;6627;50.920;12.050;2024-03-23T05:27:35;97846.94;;;18.61;49.41
13124;BME280;6627;50.920;12.050;2024-03-23T05:30:04;97912.81;;;19.39;48.83
13124;BME280;6627;50.920;12.050;2024-03-23T05:32:33;97862.59;;;19.42;48.08
13124;BME280;6627;50.920;12.050;2024-03-23T05:35:00;97888.63;;;20.21;46.97
13124;BME280;6627;50.920;12.050;2024-03-23T05:37:27;97877.38;;;19.71;47.76
13124;BME280;6627;50.920;12.050;2024-03-23T05:39:54;97897.88;;;19.84;47.80
13124;BME280;6627;50.920;12.050;2024-03-23T05:42:20;97806.44;;;18.84;48.76
13124;BME280;6627;50.920;12.050;2024-03-23T05:44:48;97875.88;;;18.88;49.38
13124;BME280;6627;50.920;12.050;2024-03-23T05:47:14;97842.81;;;18.07;50.76
13124;BME280;6627;50.920;12.050;2024-03-23T05:49:45;97878.25;;;18.94;49.44
13124;BME280;6627;50.920;12.050;2024-03-23T05:52:13;97991.91;;;20.84;46.65
13124;BME280;6627;50.920;12.050;2024-03-23T05:54:40;97916.88;;;20.11;47.25
13124;BME280;6627;50.920;12.050;2024-03-23T05:57:09;97873.91;;;19.81;47.44
13124;BME280;6627;50.920;12.050;2024-03-23T05:59:38;97896.22;;;20.46;46.22
13124;BME280;6627;50.920;12.050;2024-03-23T06:02:04;97921.19;;;21.13;45.17
13124;BME280;6627;50.920;12.050;2024-03-23T06:04:31;97785.72;;;20.15;45.61
13124;BME280;6627;50.920;12.050;2024-03-23T06:06:59;97857.44;;;20.72;45.19
13124;BME280;6627;50.920;12.050;2024-03-23T06:09:26;97814.03;;;20.30;45.77
13124;BME280;6627;50.920;12.050;2024-03-23T06:11:53;97847.91;;;20.48;45.71
13124;BME280;6627;50.920;12.050;2024-03-23T06:14:21;97732.06;;;18.49;48.90
13124;BME280;6627;50.920;12.050;2024-03-23T06:16:47;97780.88;;;19.21;48.45
13124;BME280;6627;50.920;12.050;2024-03-23T06:19:15;97863.47;;;20.12;47.73
13124;BME280;6627;50.920;12.050;2024-03-23T06:21:43;97837.44;;;19.91;48.32
13124;BME280;6627;50.920;12.050;2024-03-23T06:24:12;97808.66;;;20.62;45.98
13124;BME280;6627;50.920;12.050;2024-03-23T06:26:38;97766.16;;;20.41;45.78
13124;BME280;6627;50.920;12.050;2024-03-23T06:29:06;97780.59;;;20.06;47.06
13124;BME280;6627;50.920;12.050;2024-03-23T06:31:32;97775.44;;;19.98;46.79
13124;BME280;6627;50.920;12.050;2024-03-23T06:33:59;97769.34;;;19.60;47.84
13124;BME280;6627;50.920;12.050;2024-03-23T06:36:25;97829.13;;;20.75;45.51
13124;BME280;6627;50.920;12.050;2024-03-23T06:38:52;97754.31;;;20.27;46.32
13124;BME280;6627;50.920;12.050;2024-03-23T06:41:21;97827.97;;;21.15;45.37
13124;BME280;6627;50.920;12.050;2024-03-23T06:43:48;97792.94;;;20.59;46.27
13124;BME280;6627;50.920;12.050;2024-03-23T06:46:16;97818.91;;;21.51;44.56
13124;BME280;6627;50.920;12.050;2024-03-23T06:48:44;97785.47;;;21.27;44.43
13124;BME280;6627;50.920;12.050;2024-03-23T06:51:11;97738.69;;;21.16;44.57
13124;BME280;6627;50.920;12.050;2024-03-23T06:53:38;97829.50;;;21.88;44.06
13124;BME280;6627;50.920;12.050;2024-03-23T06:56:05;97790.81;;;22.06;42.99
13124;BME280;6627;50.920;12.050;2024-03-23T06:58:34;97762.13;;;21.85;43.56
13124;BME280;6627;50.920;12.050;2024-03-23T07:01:01;97706.44;;;21.17;44.55
13124;BME280;6627;50.920;12.050;2024-03-23T07:03:27;97705.66;;;21.02;45.27
13124;BME280;6627;50.920;12.050;2024-03-23T07:05:58;97613.69;;;19.93;46.02
13124;BME280;6627;50.920;12.050;2024-03-23T07:08:24;97653.97;;;19.60;47.31
13124;BME280;6627;50.920;12.050;2024-03-23T07:10:52;97738.72;;;20.63;46.29
13124;BME280;6627;50.920;12.050;2024-03-23T07:13:18;97735.53;;;21.18;45.21
13124;BME280;6627;50.920;12.050;2024-03-23T07:15:52;97797.66;;;21.55;44.71
13124;BME280;6627;50.920;12.050;2024-03-23T07:18:18;97654.53;;;20.05;46.38
13124;BME280;6627;50.920;12.050;2024-03-23T07:20:53;97678.78;;;19.74;47.65
13124;BME280;6627;50.920;12.050;2024-03-23T07:23:19;97665.41;;;19.69;47.56
13124;BME280;6627;50.920;12.050;2024-03-23T07:25:56;97688.44;;;19.39;48.33
13124;BME280;6627;50.920;12.050;2024-03-23T07:28:23;97642.78;;;18.51;50.04
13124;BME280;6627;50.920;12.050;2024-03-23T07:31:03;97709.84;;;19.09;49.13
13124;BME280;6627;50.920;12.050;2024-03-23T07:33:30;97697.25;;;19.08;49.21
13124;BME280;6627;50.920;12.050;2024-03-23T07:35:57;97792.38;;;20.17;47.75
13124;BME280;6627;50.920;12.050;2024-03-23T07:38:27;97763.84;;;21.36;45.17
13124;BME280;6627;50.920;12.050;2024-03-23T07:41:03;97673.03;;;20.29;46.00
13124;BME280;6627;50.920;12.050;2024-03-23T07:43:30;97745.75;;;21.35;44.54
13124;BME280;6627;50.920;12.050;2024-03-23T07:45:57;97683.69;;;20.56;45.66
13124;BME280;6627;50.920;12.050;2024-03-23T07:48:25;97601.97;;;18.43;48.58
13124;BME280;6627;50.920;12.050;2024-03-23T07:51:00;97642.16;;;18.72;48.06
13124;BME280;6627;50.920;12.050;2024-03-23T07:53:27;97769.97;;;17.46;52.58
13124;BME280;6627;50.920;12.050;2024-03-23T07:55:56;97683.28;;;17.23;51.59
13124;BME280;6627;50.920;12.050;2024-03-23T07:58:23;97691.56;;;16.77;51.71
13124;BME280;6627;50.920;12.050;2024-03-23T08:00:51;97633.31;;;16.01;52.05
13124;BME280;6627;50.920;12.050;2024-03-23T08:03:18;97573.09;;;15.09;52.40
13124;BME280;6627;50.920;12.050;2024-03-23T08:05:47;97575.53;;;15.14;51.44
13124;BME280;6627;50.920;12.050;2024-03-23T08:08:15;97566.84;;;15.08;51.12
13124;BME280;6627;50.920;12.050;2024-03-23T08:10:48;97548.41;;;14.82;51.22
13124;BME280;6627;50.920;12.050;2024-03-23T08:13:16;97584.00;;;15.09;50.55
13124;BME280;6627;50.920;12.050;2024-03-23T08:15:43;97583.09;;;14.66;50.97
13124;BME280;6627;50.920;12.050;2024-03-23T08:18:12;97581.78;;;14.60;51.04
13124;BME280;6627;50.920;12.050;2024-03-23T08:20:39;97620.22;;;14.55;51.35
13124;BME280;6627;50.920;12.050;2024-03-23T08:23:08;97601.25;;;14.11;51.43
13124;BME280;6627;50.920;12.050;2024-03-23T08:25:35;97667.56;;;14.34;51.92
13124;BME280;6627;50.920;12.050;2024-03-23T08:28:03;97628.81;;;14.09;51.51
13124;BME280;6627;50.920;12.050;2024-03-23T08:30:29;97603.63;;;13.37;52.57
13124;BME280;6627;50.920;12.050;2024-03-23T08:32:57;97590.94;;;13.57;51.46
13124;BME280;6627;50.920;12.050;2024-03-23T08:35:23;97668.34;;;14.19;51.38
13124;BME280;6627;50.920;12.050;2024-03-23T08:37:50;97629.13;;;13.76;51.87
13124;BME280;6627;50.920;12.050;2024-03-23T08:40:18;97622.75;;;13.84;51.38
13124;BME280;6627;50.920;12.050;2024-03-23T08:42:45;97637.88;;;13.54;52.05
13124;BME280;6627;50.920;12.050;2024-03-23T08:45:12;98084.19;;;28.60;31.29
13124;BME280;6627;50.920;12.050;2024-03-23T08:47:39;98157.59;;;31.45;26.79
13124;BME280;6627;50.920;12.050;2024-03-23T08:50:06;95981.00;;;18.83;31.40
13124;BME280;6627;50.920;12.050;2024-03-23T08:52:33;96581.00;;;18.09;37.77
13124;BME280;6627;50.920;12.050;2024-03-23T08:55:00;96977.41;;;19.25;38.45
13124;BME280;6627;50.920;12.050;2024-03-23T08:57:29;97105.09;;;19.58;38.28
13124;BME280;6627;50.920;12.050;2024-03-23T08:59:56;97212.06;;;19.98;38.22
13124;BME280;6627;50.920;12.050;2024-03-23T09:02:23;97250.09;;;20.10;37.51
13124;BME280;6627;50.920;12.050;2024-03-23T09:04:49;97243.59;;;19.54;37.74
13124;BME280;6627;50.920;12.050;2024-03-23T09:07:17;97215.09;;;18.98;38.22
13124;BME280;6627;50.920;12.050;2024-03-23T09:09:43;97312.28;;;19.39;38.56
13124;BME280;6627;50.920;12.050;2024-03-23T09:12:10;97257.78;;;18.56;39.39
13124;BME280;6627;50.920;12.050;2024-03-23T09:14:38;97467.56;;;20.33;36.82
13124;BME280;6627;50.920;12.050;2024-03-23T09:17:05;97612.16;;;21.76;36.19
13124;BME280;6627;50.920;12.050;2024-03-23T09:19:32;97520.34;;;21.16;35.68
13124;BME280;6627;50.920;12.050;2024-03-23T09:21:59;97095.91;;;17.49;39.22
13124;BME280;6627;50.920;12.050;2024-03-23T09:24:26;97557.16;;;20.02;38.83
13124;BME280;6627;50.920;12.050;2024-03-23T09:26:54;97382.88;;;19.57;37.82
13124;BME280;6627;50.920;12.050;2024-03-23T09:29:20;97613.22;;;21.05;37.62
13124;BME280;6627;50.920;12.050;2024-03-23T09:31:49;97418.16;;;19.19;38.33
13124;BME280;6627;50.920;12.050;2024-03-23T09:34:15;97451.03;;;18.98;39.00
13124;BME280;6627;50.920;12.050;2024-03-23T09:36:43;97370.75;;;18.10;39.79
13124;BME280;6627;50.920;12.050;2024-03-23T09:39:09;97402.06;;;18.09;39.59
13124;BME280;6627;50.920;12.050;2024-03-23T09:41:36;97496.31;;;18.63;39.09
13124;BME280;6627;50.920;12.050;2024-03-23T09:44:03;97501.22;;;18.25;40.38
13124;BME280;6627;50.920;12.050;2024-03-23T09:46:31;97481.88;;;18.00;40.60
13124;BME280;6627;50.920;12.050;2024-03-23T09:49:01;97512.03;;;18.66;39.34
13124;BME280;6627;50.920;12.050;2024-03-23T09:51:31;97522.69;;;18.16;40.24
13124;BME280;6627;50.920;12.050;2024-03-23T09:53:57;97512.09;;;18.11;40.45
13124;BME280;6627;50.920;12.050;2024-03-23T09:56:24;97641.63;;;19.11;39.53
13124;BME280;6627;50.920;12.050;2024-03-23T09:58:51;97384.28;;;16.52;42.14
13124;BME280;6627;50.920;12.050;2024-03-23T10:01:18;97556.28;;;17.28;42.40
13124;BME280;6627;50.920;12.050;2024-03-23T10:03:45;97407.50;;;15.78;42.84
13124;BME280;6627;50.920;12.050;2024-03-23T10:06:14;97455.22;;;16.14;43.47
13124;BME280;6627;50.920;12.050;2024-03-23T10:08:47;97682.22;;;17.65;41.78
13124;BME280;6627;50.920;12.050;2024-03-23T10:11:16;97767.34;;;18.54;40.63
13124;BME280;6627;50.920;12.050;2024-03-23T10:13:43;97817.38;;;19.25;39.70
13124;BME280;6627;50.920;12.050;2024-03-23T10:16:20;97685.31;;;17.94;40.52
13124;BME280;6627;50.920;12.050;2024-03-23T10:18:47;97628.25;;;17.02;42.27
13124;BME280;6627;50.920;12.050;2024-03-23T10:21:17;97608.56;;;17.19;42.11
13124;BME280;6627;50.920;12.050;2024-03-23T10:23:44;97601.53;;;16.12;43.73
13124;BME280;6627;50.920;12.050;2024-03-23T10:26:15;97627.28;;;16.64;43.31
13124;BME280;6627;50.920;12.050;2024-03-23T10:28:53;97737.88;;;17.43;42.63
13124;BME280;6627;50.920;12.050;2024-03-23T10:31:21;97805.47;;;18.66;40.53
13124;BME280;6627;50.920;12.050;2024-03-23T10:33:48;97881.44;;;18.96;41.04
13124;BME280;6627;50.920;12.050;2024-03-23T10:36:19;97756.78;;;18.15;40.90
13124;BME280;6627;50.920;12.050;2024-03-23T10:38:47;97540.31;;;15.90;43.09
13124;BME280;6627;50.920;12.050;2024-03-23T10:41:16;97864.03;;;18.47;41.26
13124;BME280;6627;50.920;12.050;2024-03-23T10:43:45;97731.72;;;19.02;39.08
13124;BME280;6627;50.920;12.050;2024-03-23T10:46:13;97540.81;;;16.22;42.55
13124;BME280;6627;50.920;12.050;2024-03-23T10:48:40;97658.88;;;16.12;44.08
13124;BME280;6627;50.920;12.050;2024-03-23T10:51:09;97671.75;;;16.34;43.70
13124;BME280;6627;50.920;12.050;2024-03-23T10:53:53;97712.22;;;16.98;42.51
13124;BME280;6627;50.920;12.050;2024-03-23T10:56:23;97797.19;;;16.85;43.91
13124;BME280;6627;50.920;12.050;2024-03-23T10:58:50;97753.69;;;16.77;43.31
13124;BME280;6627;50.920;12.050;2024-03-23T11:01:18;97747.28;;;16.46;44.16
13124;BME280;6627;50.920;12.050;2024-03-23T11:03:46;97750.44;;;16.71;43.49
13124;BME280;6627;50.920;12.050;2024-03-23T11:06:36;97775.28;;;16.62;43.99
13124;BME280;6627;50.920;12.050;2024-03-23T11:09:04;97653.50;;;15.54;44.73
13124;BME280;6627;50.920;12.050;2024-03-23T11:11:52;97839.25;;;17.00;44.32
13124;BME280;6627;50.920;12.050;2024-03-23T11:14:22;97938.34;;;18.08;43.04
13124;BME280;6627;50.920;12.050;2024-03-23T11:17:08;97682.00;;;16.18;43.47
13124;BME280;6627;50.920;12.050;2024-03-23T11:19:37;97783.66;;;17.19;42.82
13124;BME280;6627;50.920;12.050;2024-03-23T11:22:05;97846.63;;;17.46;42.70
13124;BME280;6627;50.920;12.050;2024-03-23T11:24:32;97755.63;;;16.76;42.80
13124;BME280;6627;50.920;12.050;2024-03-23T11:27:01;97751.78;;;16.35;43.46
13124;BME280;6627;50.920;12.050;2024-03-23T11:29:30;97881.56;;;17.29;43.29
13124;BME280;6627;50.920;12.050;2024-03-23T11:31:57;97923.75;;;17.74;42.63
13124;BME280;6627;50.920;12.050;2024-03-23T11:34:24;97884.13;;;17.95;41.60
13124;BME280;6627;50.920;12.050;2024-03-23T11:37:04;97786.34;;;17.15;42.05
13124;BME280;6627;50.920;12.050;2024-03-23T11:39:30;97820.03;;;17.46;41.74
13124;BME280;6627;50.920;12.050;2024-03-23T11:42:00;97708.06;;;16.35;42.84
13124;BME280;6627;50.920;12.050;2024-03-23T11:44:27;97699.44;;;16.56;41.44
13124;BME280;6627;50.920;12.050;2024-03-23T11:47:07;97806.94;;;17.59;40.86
13124;BME280;6627;50.920;12.050;2024-03-23T11:49:34;97870.78;;;18.20;40.52
13124;BME280;6627;50.920;12.050;2024-03-23T11:52:08;97716.47;;;16.95;41.27
13124;BME280;6627;50.920;12.050;2024-03-23T11:54:36;97839.59;;;18.01;40.52
13124;BME280;6627;50.920;12.050;2024-03-23T11:57:08;97808.44;;;18.13;39.56
13124;BME280;6627;50.920;12.050;2024-03-23T11:59:37;97904.50;;;18.57;40.09
13124;BME280;6627;50.920;12.050;2024-03-23T12:02:09;97709.78;;;17.79;39.30
13124;BME280;6627;50.920;12.050;2024-03-23T12:04:37;97886.09;;;18.92;39.10
13124;BME280;6627;50.920;12.050;2024-03-23T12:07:11;97712.53;;;17.79;39.47
13124;BME280;6627;50.920;12.050;2024-03-23T12:09:38;97839.28;;;19.18;38.53
13124;BME280;6627;50.920;12.050;2024-03-23T12:12:09;97768.91;;;18.55;38.86
13124;BME280;6627;50.920;12.050;2024-03-23T12:14:35;97831.53;;;19.27;38.05
13124;BME280;6627;50.920;12.050;2024-03-23T12:17:13;97751.34;;;19.04;37.20
13124;BME280;6627;50.920;12.050;2024-03-23T12:19:40;97857.47;;;19.88;37.23
13124;BME280;6627;50.920;12.050;2024-03-23T12:22:08;97874.53;;;20.26;36.83
13124;BME280;6627;50.920;12.050;2024-03-23T12:24:35;97638.41;;;18.98;36.88
13124;BME280;6627;50.920;12.050;2024-03-23T12:27:04;97626.63;;;18.90;37.17
13124;BME280;6627;50.920;12.050;2024-03-23T12:29:32;97665.50;;;19.07;37.50
13124;BME280;6627;50.920;12.050;2024-03-23T12:32:01;97544.69;;;18.27;36.90
13124;BME280;6627;50.920;12.050;2024-03-23T12:34:27;97666.53;;;18.84;38.12
13124;BME280;6627;50.920;12.050;2024-03-23T12:36:56;97730.16;;;19.63;37.04
13124;BME280;6627;50.920;12.050;2024-03-23T12:39:22;97591.53;;;19.35;34.87
13124;BME280;6627;50.920;12.050;2024-03-23T12:41:50;97443.59;;;18.11;35.58
13124;BME280;6627;50.920;12.050;2024-03-23T12:44:18;97501.50;;;18.72;35.13
13124;BME280;6627;50.920;12.050;2024-03-23T12:46:47;97442.16;;;18.38;35.20
13124;BME280;6627;50.920;12.050;2024-03-23T12:49:14;97360.41;;;17.78;35.24
13124;BME280;6627;50.920;12.050;2024-03-23T12:51:49;97424.22;;;18.59;34.73
13124;BME280;6627;50.920;12.050;2024-03-23T12:54:19;97410.03;;;18.28;35.40
13124;BME280;6627;50.920;12.050;2024-03-23T12:56:46;97303.97;;;17.59;35.11
13124;BME280;6627;50.920;12.050;2024-03-23T12:59:13;97426.34;;;18.07;36.05
13124;BME280;6627;50.920;12.050;2024-03-23T13:01:40;97389.44;;;17.86;36.04
13124;BME280;6627;50.920;12.050;2024-03-23T13:04:08;97346.84;;;17.41;35.94
13124;BME280;6627;50.920;12.050;2024-03-23T13:06:35;97549.00;;;18.94;35.43
13124;BME280;6627;50.920;12.050;2024-03-23T13:09:02;97516.09;;;18.94;35.38
13124;BME280;6627;50.920;12.050;2024-03-23T13:11:30;97518.16;;;19.25;34.56
13124;BME280;6627;50.920;12.050;2024-03-23T13:13:57;97478.47;;;18.90;35.10
13124;BME280;6627;50.920;12.050;2024-03-23T13:16:24;97461.16;;;18.76;35.14
13124;BME280;6627;50.920;12.050;2024-03-23T13:18:51;97584.47;;;19.31;35.01
13124;BME280;6627;50.920;12.050;2024-03-23T13:21:19;97527.09;;;19.08;34.92
13124;BME280;6627;50.920;12.050;2024-03-23T13:23:48;97609.38;;;20.13;33.83
13124;BME280;6627;50.920;12.050;2024-03-23T13:26:17;97429.09;;;18.98;34.04
13124;BME280;6627;50.920;12.050;2024-03-23T13:28:43;97455.00;;;19.04;34.54
13124;BME280;6627;50.920;12.050;2024-03-23T13:31:11;97400.84;;;18.90;33.76
13124;BME280;6627;50.920;12.050;2024-03-23T13:33:37;97480.91;;;19.17;34.24
13124;BME280;6627;50.920;12.050;2024-03-23T13:36:07;97383.59;;;18.89;33.45
13124;BME280;6627;50.920;12.050;2024-03-23T13:38:35;97385.56;;;18.85;34.11
13124;BME280;6627;50.920;12.050;2024-03-23T13:41:03;97389.09;;;18.89;33.38
13124;BME280;6627;50.920;12.050;2024-03-23T13:43:30;97264.41;;;18.44;32.79
13124;BME280;6627;50.920;12.050;2024-03-23T13:45:59;97349.09;;;18.81;32.97
13124;BME280;6627;50.920;12.050;2024-03-23T13:48:27;97385.22;;;19.40;32.01
13124;BME280;6627;50.920;12.050;2024-03-23T13:50:58;97157.88;;;18.43;32.04
13124;BME280;6627;50.920;12.050;2024-03-23T13:53:25;97287.97;;;19.27;31.25
13124;BME280;6627;50.920;12.050;2024-03-23T13:55:53;97302.06;;;19.58;30.74
13124;BME280;6627;50.920;12.050;2024-03-23T13:58:20;97295.41;;;19.37;31.70